• Join FlightAware (Why Join?)
  • Login
  • US Flag 
03:45AM EDT


 

Airport Tracker/Info


-or-


 

Live Flight TrackerFlight Track Log ✈ CJT574 ✈ 04-Jul-2013 ✈ CYEG - CYWG

Flight Track Log - Related Links

Times and Time Zones

All times are in EDT time to prevent confusion due to time zone crossing. See the CJT574 flight status page for this flight to view local times or setup timezone preferences in your user account.

Time Position Orientation Groundspeed Altitude Reporting Facility
EDT Latitude Longitude Course Direction KTS MPH feet Rate Location/Type
11:48PM 53.2833 -113.6000 101° East 80 92 2,700  Level Edmonton Center
11:49PM 53.3000 -113.6667 293° West 170 196 4,000 1,200 Climbing Edmonton Center
11:50PM 53.3500 -113.7167 329° Northwest 170 196 5,200 1,140 Climbing Edmonton Center
11:51PM 53.3667 -113.6000 76° East 240 276 6,300 1,500 Climbing Edmonton Center
11:52PM 53.3500 -113.4833 103° East 270 311 8,300 1,920 Climbing Edmonton Center
11:53PM 53.1481 -112.1912 101° East  Level FlightAware Approximate
11:53PM 53.3500 -113.3333 90° East 280 322 10,200  Level Edmonton Center
11:54PM 53.3333 -113.1833 100° East 340 391 11,400 1,500 Climbing Edmonton Center
11:55PM 53.3167 -113.0167 99° East 380 437 13,200 1,740 Climbing Edmonton Center
11:56PM 53.3000 -112.8500 99° East 390 449 14,900 1,800 Climbing Edmonton Center
11:57PM 53.2833 -112.6667 99° East 400 460 16,900 1,680 Climbing Edmonton Center
11:58PM 53.2500 -112.4667 105° East 410 472 18,300 1,740 Climbing Edmonton Center
11:59PM 53.2167 -112.2833 107° East 420 483 20,400 1,680 Climbing Edmonton Center
12:00AM 53.2000 -112.0833 98° East 430 495 21,700 1,140 Climbing Edmonton Center
12:01AM 53.1500 -111.8833 113° Southeast 450 518 22,700 1,200 Climbing Edmonton Center
12:02AM 53.1167 -111.6500 103° East 460 529 24,200 1,380 Climbing Edmonton Center
12:03AM 53.1000 -111.4500 98° East 470 541 25,500 1,260 Climbing Edmonton Center
12:04AM 53.0667 -111.2167 103° East 480 552 26,800 1,020 Climbing Edmonton Center
12:05AM 53.0167 -111.0167 112° Southeast 480 552 27,600 1,260 Climbing Edmonton Center
12:06AM 53.0000 -110.7833 97° East 490 564 29,400 1,200 Climbing Edmonton Center
12:07AM 52.9500 -110.5833 112° Southeast 490 564 30,100 960 Climbing Edmonton Center
12:08AM 52.9167 -110.3500 103° East 490 564 31,400 1,200 Climbing Edmonton Center
12:09AM 52.8833 -110.1500 105° East 480 552 32,600 840 Climbing Edmonton Center
12:10AM 52.8500 -109.9167 103° East 480 552 33,100 600 Climbing Edmonton Center
12:11AM 52.8167 -109.7000 104° East 490 564 33,800 720 Climbing Edmonton Center
12:12AM 52.7833 -109.5000 105° East 490 564 34,600 600 Climbing Edmonton Center
12:13AM 52.7500 -109.2667 103° East 490 564 35,000 180 Climbing Edmonton Center
12:14AM 52.7000 -109.0333 109° East 500 575 35,000  Level Edmonton Center
12:15AM 52.6667 -108.8167 104° East 500 575 35,000  Level Edmonton Center
12:16AM 52.6167 -108.5833 109° East 500 575 35,000  Level Edmonton Center
12:17AM 52.5667 -108.3500 109° East 500 575 35,000  Level Edmonton Center
12:18AM 52.5500 -108.1333 97° East 510 587 35,000  Level Edmonton Center
12:19AM 52.5000 -107.9333 112° Southeast 510 587 35,000  Level Edmonton Center
12:20AM 52.4500 -107.6833 108° East 510 587 35,000  Level Edmonton Center
12:21AM 52.4167 -107.4500 103° East 510 587 35,000  Level Edmonton Center
12:22AM 52.3667 -107.2333 111° Southeast 510 587 35,000  Level Edmonton Center
12:23AM 52.3333 -107.0167 104° East 510 587 35,000  Level Edmonton Center
12:24AM 52.2833 -106.7833 109° East 510 587 35,000  Level Edmonton Center
12:25AM 52.2333 -106.5667 111° Southeast 520 598 35,000  Level Edmonton Center
12:26AM 52.1833 -106.3500 111° Southeast 510 587 35,000  Level Edmonton Center
12:27AM 52.1500 -106.1167 103° East 510 587 35,000  Level Edmonton Center
12:28AM 52.1000 -105.9000 111° Southeast 510 587 35,000  Level Edmonton Center
12:29AM 52.0667 -105.6833 104° East 510 587 35,000  Level Edmonton Center
12:30AM 52.0167 -105.4500 109° East 510 587 35,000  Level Edmonton Center
12:31AM 51.9667 -105.2333 110° East 510 587 35,000  Level Edmonton Center
12:32AM 51.9167 -105.0167 110° East 510 587 35,000  Level Edmonton Center
12:33AM 51.8667 -104.8000 110° East 510 587 35,000  Level Edmonton Center
12:34AM 51.8167 -104.5833 110° East 510 587 35,000  Level Edmonton Center
12:35AM 51.7833 -104.3667 104° East 510 587 35,000  Level Edmonton Center
12:36AM 51.7167 -104.1500 116° Southeast 510 587 35,000  Level Edmonton Center
12:37AM 51.6667 -103.9333 110° East 510 587 35,000  Level Edmonton Center
12:38AM 51.6167 -103.7167 110° East 510 587 35,000  Level Edmonton Center
12:39AM 51.5667 -103.5000 110° East 510 587 35,000  Level Edmonton Center
12:40AM 51.5167 -103.2833 110° East 510 587 35,000  Level Edmonton Center
12:41AM 51.4667 -103.0667 110° East 520 598 35,000  Level Edmonton Center
12:42AM 51.4167 -102.8500 110° East 520 598 35,000  Level Edmonton Center
12:43AM 51.3667 -102.6333 110° East 520 598 35,000  Level Edmonton Center
12:44AM 51.3167 -102.4333 112° Southeast 510 587 35,000  Level Edmonton Center
12:45AM 51.2500 -102.2167 116° Southeast 510 587 35,000  Level Edmonton Center
12:46AM 51.2167 -102.0000 104° East 510 587 35,000  Level Edmonton Center
12:47AM 51.1500 -101.7667 114° Southeast 510 587 35,000  Level Edmonton Center
12:48AM 51.1000 -101.5833 113° Southeast 510 587 35,000  Level Edmonton Center
12:49AM 51.0500 -101.3667 110° East 500 575 35,000  Level Edmonton Center
12:50AM 51.0000 -101.1500 110° East 500 575 35,000  Level Edmonton Center
12:51AM 50.9500 -100.9500 112° Southeast 500 575 35,000  Level Edmonton Center
12:52AM 50.8833 -100.7333 116° Southeast 500 575 35,000  Level Edmonton Center
12:53AM 50.8333 -100.4833 107° East 510 587 35,000  Level Winnipeg Center
12:54AM 50.7667 -100.2667 116° Southeast 510 587 35,000  Level Winnipeg Center
12:55AM 50.7000 -100.0500 116° Southeast 510 587 35,000  Level Winnipeg Center
12:56AM 50.6667 -99.8667 106° East 510 587 35,000  Level Winnipeg Center
12:57AM 50.6000 -99.6500 116° Southeast 510 587 35,000  Level Winnipeg Center
12:58AM 50.5333 -99.4667 120° Southeast 510 587 35,000 -300 Level Winnipeg Center
12:59AM 50.4833 -99.2333 109° East 520 598 34,400 -1,620 Descending Winnipeg Center
01:00AM 50.4333 -99.0333 111° Southeast 510 587 31,800 -3,360 Descending Winnipeg Center
01:01AM 50.3833 -98.8333 111° Southeast 510 587 27,700 -3,840 Descending Winnipeg Center
01:02AM 50.3167 -98.6167 116° Southeast 510 587 24,200 -3,300 Descending Winnipeg Center
01:03AM 50.2667 -98.4333 113° Southeast 490 564 21,200 -3,300 Descending Winnipeg Center
01:04AM 50.2167 -98.2500 113° Southeast 460 529 17,600 -3,660 Descending Winnipeg Center
01:05AM 50.1833 -98.0667 106° East 450 518 13,900 -3,000 Descending Winnipeg Center
01:06AM 50.1500 -97.9000 107° East 410 472 11,600 -1,920 Descending Winnipeg Center
01:07AM 50.1000 -97.7667 120° Southeast 310 357 10,100 -2,220 Descending Winnipeg Center
01:08AM 50.0833 -97.6667 105° East 280 322 7,200 -3,240 Descending Winnipeg Center
01:09AM 50.0500 -97.5333 111° Southeast 270 311 3,700 -1,860 Descending Winnipeg Center
01:10AM 50.0167 -97.4667 128° Southeast 230 265 3,500 -240 Descending Winnipeg Center
01:11AM 50.0000 -97.3833 107° East 170 196 3,300 -540 Descending Winnipeg Center
01:12AM 49.9667 -97.3333 136° Southeast 160 184 2,500 -900 Descending Winnipeg Center
01:13AM 49.9333 -97.2833 136° Southeast 150 173 1,600 -840 Descending Winnipeg Center
01:14AM 49.9000 -97.2500 147° Southeast 160 184 900 -720 Descending Winnipeg Center